Time;durP1;ratioP1;P1;durP2;ratioP2;P2;SDS_P1;SDS_P2;PMS_P1;PMS_P2;Temp;Humidity;BMP_temperature;BMP_pressure;BME280_temperature;BME280_humidity;BME280_pressure;Samples;Min_cycle;Max_cycle;Signal;HPM_P1;HPM_P2
2022/08/08 00:02:14;;;;;;;;;5.33;3.67;;;;;-145.45;100.00;57426.63;5059335;27;45494;-74
2022/08/08 00:04:48;;;;;;;;;2.67;2.67;;;;;-145.45;100.00;57426.63;5089952;27;45261;-74
2022/08/08 00:07:46;;;;;;;;;4.33;4.33;;;;;-145.45;100.00;57426.63;5085789;27;45463;-74
2022/08/08 00:10:24;;;;;;;;;3.67;3.67;;;;;-145.45;100.00;57426.63;5080289;27;45560;-74
2022/08/08 00:13:08;;;;;;;;;4.00;4.00;;;;;-145.45;100.00;57426.63;5084119;27;45232;-74
2022/08/08 00:15:39;;;;;;;;;3.00;3.00;;;;;-145.45;100.00;57426.63;5081794;27;45237;-74
2022/08/08 00:18:15;;;;;;;;;5.00;5.00;;;;;-145.45;100.00;57426.63;5078933;27;45510;-74
2022/08/08 00:21:00;;;;;;;;;2.67;2.67;;;;;-145.45;100.00;57426.63;5081488;27;45441;-75
2022/08/08 00:23:37;;;;;;;;;4.33;4.33;;;;;-145.45;100.00;57426.63;5089586;27;45474;-74
2022/08/08 00:26:06;;;;;;;;;5.00;5.00;;;;;-145.45;100.00;57426.63;5075638;27;45389;-74
2022/08/08 00:28:45;;;;;;;;;4.33;4.00;;;;;-145.45;100.00;57426.63;5089634;27;45537;-74
2022/08/08 00:31:24;;;;;;;;;5.33;3.67;;;;;-145.45;100.00;57426.63;5081582;27;45539;-74
2022/08/08 00:36:57;;;;;;;;;3.00;3.00;;;;;-145.45;100.00;57426.63;5083932;27;45359;-75
2022/08/08 00:39:35;;;;;;;;;4.33;4.33;;;;;-145.45;100.00;57426.63;5076735;27;45931;-74
2022/08/08 00:42:40;;;;;;;;;3.67;3.67;;;;;-145.45;100.00;57426.63;5085216;27;46577;-74
2022/08/08 00:45:49;;;;;;;;;6.00;3.00;;;;;-145.45;100.00;57426.63;5083748;27;45454;-74
2022/08/08 00:48:36;;;;;;;;;8.33;5.00;;;;;-145.45;100.00;57426.63;5084122;27;44742;-74
2022/08/08 00:51:07;;;;;;;;;3.67;2.67;;;;;-145.45;100.00;57426.63;5082233;27;45572;-75
2022/08/08 00:53:55;;;;;;;;;4.67;4.67;;;;;-145.45;100.00;57426.63;5088574;27;46195;-75
2022/08/08 00:56:51;;;;;;;;;6.33;5.33;;;;;-145.45;100.00;57426.63;5083055;27;45573;-75
2022/08/08 00:59:48;;;;;;;;;2.67;2.67;;;;;-145.45;100.00;57426.63;5071979;27;45502;-75
2022/08/08 01:02:31;;;;;;;;;4.00;3.67;;;;;-145.45;100.00;57426.63;5076185;28;46141;-75
2022/08/08 01:05:27;;;;;;;;;2.67;2.67;;;;;-145.45;100.00;57426.63;5084368;27;45327;-75
2022/08/08 01:08:24;;;;;;;;;5.33;4.67;;;;;-145.45;100.00;57426.63;5070416;27;45385;-75
2022/08/08 01:11:08;;;;;;;;;5.00;5.00;;;;;-145.45;100.00;57426.63;5062076;27;45471;-75
2022/08/08 01:13:52;;;;;;;;;4.67;4.33;;;;;-145.45;100.00;57426.63;5074344;28;46048;-75
2022/08/08 01:16:37;;;;;;;;;4.00;4.00;;;;;-145.45;100.00;57426.63;5079823;27;47319;-75
2022/08/08 01:19:33;;;;;;;;;5.67;3.67;;;;;-145.45;100.00;57426.63;5077157;28;45497;-75
2022/08/08 01:22:23;;;;;;;;;4.67;4.67;;;;;-145.45;100.00;57426.63;5082270;27;45441;-75
2022/08/08 01:24:52;;;;;;;;;5.33;2.67;;;;;-145.45;100.00;57426.63;5087487;27;45244;-75
2022/08/08 01:27:37;;;;;;;;;4.33;4.33;;;;;-145.45;100.00;57426.63;5087550;27;46077;-75
2022/08/08 01:30:40;;;;;;;;;4.67;4.67;;;;;-145.45;100.00;57426.63;5080248;27;45320;-75
2022/08/08 01:33:30;;;;;;;;;6.00;3.67;;;;;-145.45;100.00;57426.63;5085449;27;45627;-75
2022/08/08 01:36:13;;;;;;;;;4.00;4.00;;;;;-145.45;100.00;57426.63;5083923;27;45195;-75
2022/08/08 01:39:22;;;;;;;;;4.00;4.00;;;;;-145.45;100.00;57426.63;5065482;28;48297;-75
2022/08/08 01:41:56;;;;;;;;;6.33;6.33;;;;;-145.45;100.00;57426.63;5082695;27;45468;-75
2022/08/08 01:44:43;;;;;;;;;4.33;4.33;;;;;-145.45;100.00;57426.63;5085576;27;45223;-75
2022/08/08 01:47:11;;;;;;;;;4.33;4.00;;;;;-145.45;100.00;57426.63;5084784;27;45557;-75
2022/08/08 01:50:31;;;;;;;;;5.33;4.00;;;;;-145.45;100.00;57426.63;5074610;27;47297;-75
2022/08/08 01:53:14;;;;;;;;;4.67;4.67;;;;;-145.45;100.00;57426.63;4997369;28;45456;-75
2022/08/08 01:56:11;;;;;;;;;6.00;5.00;;;;;-145.45;100.00;57426.63;5088723;27;45392;-75
2022/08/08 01:58:52;;;;;;;;;6.00;6.00;;;;;-145.45;100.00;57426.63;5077748;28;46145;-74
2022/08/08 02:02:05;;;;;;;;;3.33;3.33;;;;;-145.45;100.00;57426.63;5071302;27;46368;-74
2022/08/08 02:04:47;;;;;;;;;5.33;5.33;;;;;-145.45;100.00;57426.63;4981573;28;45559;-75
2022/08/08 02:07:25;;;;;;;;;7.00;6.00;;;;;-145.45;100.00;57426.63;5071767;27;45424;-75
2022/08/08 02:10:14;;;;;;;;;5.33;3.67;;;;;-145.45;100.00;57426.63;5079735;27;45386;-75
2022/08/08 02:13:00;;;;;;;;;5.00;4.00;;;;;-145.45;100.00;57426.63;5086455;27;46309;-75
2022/08/08 02:15:46;;;;;;;;;5.67;5.67;;;;;-145.45;100.00;57426.63;5079880;27;45348;-75
2022/08/08 02:18:26;;;;;;;;;5.00;4.00;;;;;-145.45;100.00;57426.63;5077145;27;45383;-74
2022/08/08 02:23:50;;;;;;;;;5.00;5.00;;;;;-145.45;100.00;57426.63;5084503;27;45340;-75
2022/08/08 02:26:25;;;;;;;;;5.67;4.67;;;;;-145.45;100.00;57426.63;5091285;27;45417;-74
2022/08/08 02:29:08;;;;;;;;;4.00;4.00;;;;;-145.45;100.00;57426.63;5086236;27;45363;-74
2022/08/08 02:31:55;;;;;;;;;5.00;5.00;;;;;-145.45;100.00;57426.63;5064774;27;46126;-74
2022/08/08 02:34:49;;;;;;;;;6.00;6.00;;;;;-145.45;100.00;57426.63;5087096;27;45667;-74
2022/08/08 02:37:30;;;;;;;;;7.67;4.67;;;;;-145.45;100.00;57426.63;5084837;27;45379;-74
2022/08/08 02:40:18;;;;;;;;;6.00;5.00;;;;;-145.45;100.00;57426.63;5079525;27;44774;-75
2022/08/08 02:43:24;;;;;;;;;8.67;5.67;;;;;-145.45;100.00;57426.63;5084599;27;45460;-75
2022/08/08 02:46:07;;;;;;;;;4.00;4.00;;;;;-145.45;100.00;57426.63;5086752;27;46379;-76
2022/08/08 02:49:09;;;;;;;;;6.67;4.67;;;;;-145.45;100.00;57426.63;5087950;27;45343;-75
2022/08/08 02:52:15;;;;;;;;;7.00;6.00;;;;;-145.45;100.00;57426.63;5085550;27;45218;-76
2022/08/08 02:55:02;;;;;;;;;5.00;4.00;;;;;-145.45;100.00;57426.63;5085738;27;45506;-76
2022/08/08 02:57:49;;;;;;;;;8.33;6.33;;;;;-145.45;100.00;57426.63;5077559;27;45434;-76
2022/08/08 03:00:39;;;;;;;;;7.00;6.67;;;;;-145.45;100.00;57426.63;5078133;27;45830;-76
2022/08/08 03:03:28;;;;;;;;;5.67;5.67;;;;;-145.45;100.00;57426.63;5073289;27;47341;-76
2022/08/08 03:06:02;;;;;;;;;6.00;6.00;;;;;-145.45;100.00;57426.63;5046236;27;45558;-76
2022/08/08 03:08:45;;;;;;;;;4.33;4.00;;;;;-145.45;100.00;57426.63;5078072;27;45711;-76
2022/08/08 03:11:29;;;;;;;;;6.00;6.00;;;;;-145.45;100.00;57426.63;5088908;27;45372;-75
2022/08/08 03:14:31;;;;;;;;;5.67;5.67;;;;;-145.45;100.00;57426.63;5073620;27;45470;-75
2022/08/08 03:17:02;;;;;;;;;7.00;7.00;;;;;-145.45;100.00;57426.63;5084274;27;45310;-75
2022/08/08 03:20:04;;;;;;;;;6.33;4.67;;;;;-145.45;100.00;57426.63;5082475;27;46287;-75
2022/08/08 03:22:29;;;;;;;;;6.00;6.00;;;;;-145.45;100.00;57426.63;5089571;27;45345;-76
2022/08/08 03:24:55;;;;;;;;;5.67;5.67;;;;;-145.45;100.00;57426.63;5082341;27;45294;-75
2022/08/08 03:27:36;;;;;;;;;5.00;5.00;;;;;-145.45;100.00;57426.63;5090443;27;45411;-75
2022/08/08 03:30:11;;;;;;;;;6.00;5.33;;;;;-145.45;100.00;57426.63;5079602;28;47087;-75
2022/08/08 03:35:24;;;;;;;;;5.33;5.33;;;;;-145.45;100.00;57426.63;5086422;27;45356;-75
2022/08/08 03:37:49;;;;;;;;;6.33;6.00;;;;;-145.45;100.00;57426.63;5079759;27;46217;-75
2022/08/08 03:40:16;;;;;;;;;8.33;6.67;;;;;-145.45;100.00;57426.63;5084707;27;45297;-75
2022/08/08 03:42:43;;;;;;;;;6.00;6.00;;;;;-145.45;100.00;57426.63;5079226;28;44917;-75
2022/08/08 03:45:23;;;;;;;;;6.33;5.67;;;;;-145.45;100.00;57426.63;5086320;27;45329;-75
2022/08/08 03:48:08;;;;;;;;;7.33;7.33;;;;;-145.45;100.00;57426.63;5079846;28;45346;-75
2022/08/08 03:50:35;;;;;;;;;7.00;7.00;;;;;-145.45;100.00;57426.63;5088145;27;45453;-75
2022/08/08 03:53:13;;;;;;;;;6.00;6.00;;;;;-145.45;100.00;57426.63;5092089;27;46483;-76
2022/08/08 03:55:41;;;;;;;;;7.67;7.67;;;;;-145.45;100.00;57426.63;5089303;27;45277;-76
2022/08/08 03:58:08;;;;;;;;;7.33;7.33;;;;;-145.45;100.00;57426.63;5097238;27;45325;-75
2022/08/08 04:00:35;;;;;;;;;6.00;6.00;;;;;-145.45;100.00;57426.63;5095061;27;45262;-75
2022/08/08 04:03:05;;;;;;;;;8.00;7.00;;;;;-145.45;100.00;57426.63;5082824;27;45430;-75
2022/08/08 04:05:33;;;;;;;;;7.00;7.00;;;;;-145.45;100.00;57426.63;5081760;27;45301;-74
2022/08/08 04:08:01;;;;;;;;;12.00;8.00;;;;;-145.45;100.00;57426.63;5086371;27;45290;-75
2022/08/08 04:10:28;;;;;;;;;7.33;7.33;;;;;-145.45;100.00;57426.63;5084970;27;45436;-75
2022/08/08 04:12:54;;;;;;;;;8.00;6.67;;;;;-145.45;100.00;57426.63;5087290;27;45320;-74
2022/08/08 04:15:19;;;;;;;;;7.33;5.00;;;;;-145.45;100.00;57426.63;5087311;27;45400;-75
2022/08/08 04:17:45;;;;;;;;;9.33;7.67;;;;;-145.45;100.00;57426.63;5088267;27;45474;-74
2022/08/08 04:20:10;;;;;;;;;6.00;6.00;;;;;-145.45;100.00;57426.63;5088952;27;46128;-75
2022/08/08 04:22:36;;;;;;;;;7.00;6.00;;;;;-145.45;100.00;57426.63;5083841;27;45300;-75
2022/08/08 04:25:03;;;;;;;;;9.33;8.00;;;;;-145.45;100.00;57426.63;5081495;27;45243;-75
2022/08/08 04:27:28;;;;;;;;;8.33;8.00;;;;;-145.45;100.00;57426.63;5090299;27;45556;-75
2022/08/08 04:29:54;;;;;;;;;9.00;7.33;;;;;-145.45;100.00;57426.63;5080908;27;50516;-75
2022/08/08 04:32:19;;;;;;;;;8.67;6.00;;;;;-145.45;100.00;57426.63;5088088;27;45304;-75
2022/08/08 04:34:45;;;;;;;;;8.67;7.00;;;;;-145.45;100.00;57426.63;5087598;27;45376;-75
2022/08/08 04:37:11;;;;;;;;;11.33;7.00;;;;;-145.45;100.00;57426.63;5085352;27;45353;-75
2022/08/08 04:39:37;;;;;;;;;7.67;7.67;;;;;-145.45;100.00;57426.63;5087615;27;46557;-75
2022/08/08 04:42:03;;;;;;;;;7.33;7.33;;;;;-145.45;100.00;57426.63;5085732;27;45356;-75
2022/08/08 04:44:28;;;;;;;;;6.33;6.33;;;;;-145.45;100.00;57426.63;5090149;27;45446;-75
2022/08/08 04:46:54;;;;;;;;;9.33;8.67;;;;;-145.45;100.00;57426.63;5081749;27;45441;-75
2022/08/08 04:49:19;;;;;;;;;8.00;7.00;;;;;-145.45;100.00;57426.63;5093782;27;45507;-75
2022/08/08 04:51:44;;;;;;;;;7.67;6.67;;;;;-145.45;100.00;57426.63;5084240;27;45435;-75
2022/08/08 04:54:10;;;;;;;;;7.33;7.33;;;;;-145.45;100.00;57426.63;5094551;27;45470;-75
2022/08/08 04:56:35;;;;;;;;;9.33;9.00;;;;;-145.45;100.00;57426.63;5073889;27;46045;-75
2022/08/08 04:59:01;;;;;;;;;10.67;8.00;;;;;-145.45;100.00;57426.63;5085382;27;45965;-75
2022/08/08 05:01:26;;;;;;;;;7.00;7.00;;;;;-145.45;100.00;57426.63;5093801;27;46094;-75
2022/08/08 05:03:52;;;;;;;;;5.67;5.67;;;;;-145.45;100.00;57426.63;5087587;27;45499;-75
2022/08/08 05:06:17;;;;;;;;;7.33;6.33;;;;;-145.45;100.00;57426.63;5094949;27;45352;-75
2022/08/08 05:08:43;;;;;;;;;9.67;8.33;;;;;-145.45;100.00;57426.63;5088574;27;46623;-75
2022/08/08 05:11:12;;;;;;;;;9.00;7.67;;;;;-145.45;100.00;57426.63;5080946;27;45458;-75
2022/08/08 05:13:41;;;;;;;;;7.00;6.67;;;;;-145.45;100.00;57426.63;5090206;27;45325;-75
2022/08/08 05:16:07;;;;;;;;;9.00;8.00;;;;;-145.45;100.00;57426.63;5082143;27;45679;-75
2022/08/08 05:18:35;;;;;;;;;9.00;6.33;;;;;-145.45;100.00;57426.63;5083816;27;46076;-75
2022/08/08 05:21:01;;;;;;;;;11.00;8.33;;;;;-145.45;100.00;57426.63;5100043;27;45289;-76
2022/08/08 05:23:27;;;;;;;;;8.00;8.00;;;;;-145.45;100.00;57426.63;5075097;27;45446;-75
2022/08/08 05:25:52;;;;;;;;;11.00;8.00;;;;;-145.45;100.00;57426.63;5083295;27;45355;-75
2022/08/08 05:28:17;;;;;;;;;9.67;9.67;;;;;-145.45;100.00;57426.63;5085095;27;45442;-75
2022/08/08 05:30:43;;;;;;;;;10.67;7.00;;;;;-145.45;100.00;57426.63;5080517;27;45322;-75
2022/08/08 05:33:09;;;;;;;;;13.33;8.00;;;;;-145.45;100.00;57426.63;5087298;27;45266;-74
2022/08/08 05:35:35;;;;;;;;;10.67;7.33;;;;;-145.45;100.00;57426.63;5089002;27;45537;-74
2022/08/08 05:38:05;;;;;;;;;10.67;10.00;;;;;-145.45;100.00;57426.63;5090030;27;46057;-74
2022/08/08 05:40:32;;;;;;;;;10.00;7.33;;;;;-145.45;100.00;57426.63;5076032;28;45178;-74
2022/08/08 05:43:04;;;;;;;;;8.00;8.00;;;;;-145.45;100.00;57426.63;5090827;27;45371;-74
2022/08/08 05:45:35;;;;;;;;;12.33;9.00;;;;;-145.45;100.00;57426.63;5080026;27;45369;-75
2022/08/08 05:48:02;;;;;;;;;8.67;8.67;;;;;-145.45;100.00;57426.63;5082236;27;46311;-75
2022/08/08 05:50:31;;;;;;;;;10.67;9.00;;;;;-145.45;100.00;57426.63;5080034;27;45241;-75
2022/08/08 05:52:58;;;;;;;;;8.00;8.00;;;;;-145.45;100.00;57426.63;5074763;28;45500;-74
2022/08/08 05:55:24;;;;;;;;;13.00;10.00;;;;;-145.45;100.00;57426.63;5084797;27;45565;-75
2022/08/08 05:57:56;;;;;;;;;10.00;9.67;;;;;-145.45;100.00;57426.63;5068429;28;47310;-75
2022/08/08 06:00:27;;;;;;;;;9.00;8.67;;;;;-145.45;100.00;57426.63;5082167;27;45536;-75
2022/08/08 06:03:09;;;;;;;;;8.33;8.00;;;;;-145.45;100.00;57426.63;5082331;27;45389;-74
2022/08/08 06:05:44;;;;;;;;;8.00;8.00;;;;;-145.45;100.00;57426.63;5079825;27;45534;-74
2022/08/08 06:08:12;;;;;;;;;10.67;9.00;;;;;-145.45;100.00;57426.63;5076670;27;45991;-75
2022/08/08 06:10:40;;;;;;;;;11.67;9.67;;;;;-145.45;100.00;57426.63;5079374;27;45355;-74
2022/08/08 06:13:06;;;;;;;;;11.00;9.67;;;;;-145.45;100.00;57426.63;5086691;27;45236;-75
2022/08/08 06:15:34;;;;;;;;;11.33;9.33;;;;;-145.45;100.00;57426.63;5083340;27;45481;-74
2022/08/08 06:18:01;;;;;;;;;12.00;10.00;;;;;-145.45;100.00;57426.63;5078453;27;47209;-74
2022/08/08 06:20:27;;;;;;;;;8.67;6.67;;;;;-145.45;100.00;57426.63;5075425;27;45257;-75
2022/08/08 06:22:53;;;;;;;;;11.67;8.67;;;;;-145.45;100.00;57426.63;5089316;27;45686;-74
2022/08/08 06:25:19;;;;;;;;;10.67;7.00;;;;;-145.45;100.00;57426.63;5090286;27;45491;-74
2022/08/08 06:27:46;;;;;;;;;8.00;6.67;;;;;-145.45;100.00;57426.63;5087251;27;45430;-75
2022/08/08 06:30:13;;;;;;;;;9.67;8.00;;;;;-145.45;100.00;57426.63;5090759;27;45496;-75
2022/08/08 06:32:46;;;;;;;;;7.67;7.67;;;;;-145.45;100.00;57426.63;5082266;27;45355;-76
2022/08/08 06:35:14;;;;;;;;;9.33;8.33;;;;;-145.45;100.00;57426.63;5081384;27;45466;-76
2022/08/08 06:37:47;;;;;;;;;8.67;8.33;;;;;-145.45;100.00;57426.63;5082536;27;45275;-75
2022/08/08 06:40:14;;;;;;;;;11.00;10.33;;;;;-145.45;100.00;57426.63;5086952;27;45486;-76
2022/08/08 06:42:45;;;;;;;;;11.00;10.00;;;;;-145.45;100.00;57426.63;5082691;27;45423;-75
2022/08/08 06:45:11;;;;;;;;;8.67;8.00;;;;;-145.45;100.00;57426.63;5084214;27;45292;-75
2022/08/08 06:47:37;;;;;;;;;10.00;8.67;;;;;-145.45;100.00;57426.63;5076759;27;47462;-75
2022/08/08 06:50:04;;;;;;;;;9.67;9.33;;;;;-145.45;100.00;57426.63;5083974;27;45407;-75
2022/08/08 06:52:31;;;;;;;;;9.00;8.33;;;;;-145.45;100.00;57426.63;5083108;27;45578;-75
2022/08/08 06:54:59;;;;;;;;;8.33;8.00;;;;;-145.45;100.00;57426.63;5084102;27;45312;-76
2022/08/08 06:57:25;;;;;;;;;8.00;8.00;;;;;-145.45;100.00;57426.63;5082428;27;45425;-73
2022/08/08 06:59:52;;;;;;;;;11.00;9.00;;;;;-145.45;100.00;57426.63;5081233;27;45477;-71
2022/08/08 07:02:22;;;;;;;;;11.00;9.00;;;;;-145.45;100.00;57426.63;5082839;27;45418;-72
2022/08/08 07:04:56;;;;;;;;;11.00;10.00;;;;;-145.45;100.00;57426.63;5081185;27;45271;-71
2022/08/08 07:07:33;;;;;;;;;11.67;8.67;;;;;-145.45;100.00;57426.63;5082636;27;45467;-72
2022/08/08 07:10:07;;;;;;;;;10.67;7.67;;;;;-145.45;100.00;57426.63;5078086;27;45233;-72
2022/08/08 07:12:40;;;;;;;;;12.67;9.00;;;;;-145.45;100.00;57426.63;5084726;27;46274;-72
2022/08/08 07:15:08;;;;;;;;;7.33;6.00;;;;;-145.45;100.00;57426.63;5080192;27;45299;-72
2022/08/08 07:17:46;;;;;;;;;8.67;8.67;;;;;-145.45;100.00;57426.63;5084677;27;46123;-72
2022/08/08 07:20:28;;;;;;;;;8.33;7.00;;;;;-145.45;100.00;57426.63;5080204;27;45482;-74
2022/08/08 07:23:01;;;;;;;;;9.67;7.00;;;;;-145.45;100.00;57426.63;5079936;27;45506;-74
2022/08/08 07:25:30;;;;;;;;;8.67;8.00;;;;;-145.45;100.00;57426.63;5090788;27;45474;-75
2022/08/08 07:28:06;;;;;;;;;10.33;7.00;;;;;-145.45;100.00;57426.63;5070813;27;47039;-74
2022/08/08 07:30:32;;;;;;;;;8.67;7.67;;;;;-145.45;100.00;57426.63;5080835;27;45621;-75
2022/08/08 07:32:59;;;;;;;;;9.00;9.00;;;;;-145.45;100.00;57426.63;5085958;27;45628;-74
2022/08/08 07:35:24;;;;;;;;;8.00;8.00;;;;;-145.45;100.00;57426.63;5080905;27;45895;-74
2022/08/08 07:37:51;;;;;;;;;9.00;8.33;;;;;-145.45;100.00;57426.63;5084815;27;46203;-74
2022/08/08 07:40:17;;;;;;;;;8.67;8.00;;;;;-145.45;100.00;57426.63;5088110;27;46203;-75
2022/08/08 07:42:43;;;;;;;;;9.00;6.67;;;;;-145.45;100.00;57426.63;5086209;27;45348;-81
2022/08/08 07:45:10;;;;;;;;;7.67;7.33;;;;;-145.45;100.00;57426.63;5087860;27;45277;-85
2022/08/08 07:47:35;;;;;;;;;9.33;8.00;;;;;-145.45;100.00;57426.63;5087132;27;45033;-79
2022/08/08 07:50:01;;;;;;;;;7.33;7.00;;;;;-145.45;100.00;57426.63;5089000;27;45356;-79
2022/08/08 07:52:27;;;;;;;;;10.33;9.00;;;;;-145.45;100.00;57426.63;5086958;27;45463;-79
2022/08/08 07:55:04;;;;;;;;;5.00;5.00;;;;;-145.45;100.00;57426.63;5084048;27;45474;-83
2022/08/08 07:57:51;;;;;;;;;7.00;5.00;;;;;-145.45;100.00;57426.63;5079639;27;46745;-70
2022/08/08 08:00:17;;;;;;;;;9.33;8.33;;;;;-145.45;100.00;57426.63;5083957;27;45404;-72
2022/08/08 08:02:50;;;;;;;;;6.00;5.67;;;;;-145.45;100.00;57426.63;5084621;27;45319;-69
2022/08/08 08:05:25;;;;;;;;;7.00;6.00;;;;;-145.45;100.00;57426.63;5084043;27;45241;-69
2022/08/08 08:08:01;;;;;;;;;9.00;5.00;;;;;-145.45;100.00;57426.63;5088781;27;46164;-70
2022/08/08 08:10:28;;;;;;;;;8.33;7.33;;;;;-145.45;100.00;57426.63;5081830;27;45547;-68
2022/08/08 08:13:19;;;;;;;;;7.67;7.67;;;;;-145.45;100.00;57426.63;5092940;27;45559;-69
2022/08/08 08:15:57;;;;;;;;;8.33;6.33;;;;;-145.45;100.00;57426.63;5077840;27;45749;-69
2022/08/08 08:18:23;;;;;;;;;7.33;7.00;;;;;-145.45;100.00;57426.63;5090314;27;46138;-69
2022/08/08 08:20:52;;;;;;;;;8.67;5.33;;;;;-145.45;100.00;57426.63;5091466;27;45388;-69
2022/08/08 08:23:18;;;;;;;;;7.75;6.00;;;;;-145.45;100.00;57426.63;5084398;27;45449;-69
2022/08/08 08:25:43;;;;;;;;;6.00;6.00;;;;;-145.45;100.00;57426.63;5081347;27;45487;-69
2022/08/08 08:28:08;;;;;;;;;6.50;6.50;;;;;-145.45;100.00;57426.63;5081489;27;45960;-69
2022/08/08 08:30:34;;;;;;;;;7.00;7.00;;;;;-145.45;100.00;57426.63;5084401;27;45322;-71
2022/08/08 08:32:59;;;;;;;;;6.50;5.50;;;;;-145.45;100.00;57426.63;5089698;27;45332;-78
2022/08/08 08:35:25;;;;;;;;;7.00;5.75;;;;;-145.45;100.00;57426.63;5091866;27;45188;-73
2022/08/08 08:37:50;;;;;;;;;9.50;7.00;;;;;-145.45;100.00;57426.63;5090504;27;46225;-73
2022/08/08 08:40:16;;;;;;;;;7.00;6.50;;;;;-145.45;100.00;57426.63;5089197;27;45492;-73
2022/08/08 08:42:42;;;;;;;;;6.75;6.00;;;;;-145.45;100.00;57426.63;5086334;27;45314;-74
2022/08/08 08:45:07;;;;;;;;;4.25;4.25;;;;;-145.45;100.00;57426.63;5079858;27;45230;-72
2022/08/08 08:47:33;;;;;;;;;6.50;5.00;;;;;-145.45;100.00;57426.63;5078586;27;47627;-72
2022/08/08 08:49:59;;;;;;;;;5.75;4.00;;;;;-145.45;100.00;57426.63;5085893;27;45367;-72
2022/08/08 08:52:25;;;;;;;;;4.75;4.00;;;;;-145.45;100.00;57426.63;5083554;27;45371;-73
2022/08/08 08:54:55;;;;;;;;;5.00;5.00;;;;;-145.45;100.00;57426.63;5078338;27;46213;-73
2022/08/08 08:57:22;;;;;;;;;5.25;5.00;;;;;-145.45;100.00;57426.63;5074107;27;46514;-73
2022/08/08 08:59:52;;;;;;;;;5.50;5.25;;;;;-145.45;100.00;57426.63;5079415;27;45250;-75
2022/08/08 09:02:20;;;;;;;;;7.25;5.75;;;;;-145.45;100.00;57426.63;5086744;27;45537;-73
2022/08/08 09:04:47;;;;;;;;;5.00;5.00;;;;;-145.45;100.00;57426.63;5082954;27;45396;-73
2022/08/08 09:07:18;;;;;;;;;6.50;4.50;;;;;-145.45;100.00;57426.63;5083115;27;46182;-70
2022/08/08 09:09:49;;;;;;;;;4.50;4.50;;;;;-145.45;100.00;57426.63;5083529;27;45379;-70
2022/08/08 09:12:16;;;;;;;;;7.00;5.50;;;;;-145.45;100.00;57426.63;5082974;27;45531;-70
2022/08/08 09:14:44;;;;;;;;;5.00;5.00;;;;;-145.45;100.00;57426.63;5086188;27;45454;-72
2022/08/08 09:17:09;;;;;;;;;7.50;6.50;;;;;-145.45;100.00;57426.63;5084693;27;47894;-72
2022/08/08 09:19:36;;;;;;;;;5.25;5.00;;;;;-145.45;100.00;57426.63;5091774;27;45554;-72
2022/08/08 09:22:04;;;;;;;;;6.00;6.00;;;;;-145.45;100.00;57426.63;5075115;27;46484;-72
2022/08/08 09:24:31;;;;;;;;;5.25;4.50;;;;;-145.45;100.00;57426.63;5085889;27;45955;-73
2022/08/08 09:27:07;;;;;;;;;6.25;5.00;;;;;-145.45;100.00;57426.63;5083141;27;45579;-72
2022/08/08 09:29:40;;;;;;;;;5.75;5.75;;;;;-145.45;100.00;57426.63;5090943;27;45432;-72
2022/08/08 09:32:06;;;;;;;;;4.25;4.25;;;;;-145.45;100.00;57426.63;5084068;27;45341;-72
2022/08/08 09:34:34;;;;;;;;;4.75;4.00;;;;;-145.45;100.00;57426.63;5085273;27;45505;-72
2022/08/08 09:37:07;;;;;;;;;6.00;4.00;;;;;-145.45;100.00;57426.63;5093231;27;45359;-72
2022/08/08 09:39:47;;;;;;;;;5.80;4.00;;;;;-145.45;100.00;57426.63;5078429;27;46412;-73
2022/08/08 09:42:21;;;;;;;;;6.00;5.00;;;;;-145.45;100.00;57426.63;5091611;27;45556;-72
2022/08/08 09:45:03;;;;;;;;;5.00;4.00;;;;;-145.45;100.00;57426.63;5078590;27;45713;-72
2022/08/08 09:47:32;;;;;;;;;4.00;4.00;;;;;-145.45;100.00;57426.63;5089495;27;45550;-72
2022/08/08 09:50:01;;;;;;;;;4.20;4.20;;;;;-145.45;100.00;57426.63;5082373;27;45716;-72
2022/08/08 09:52:30;;;;;;;;;3.25;3.25;;;;;-145.45;100.00;57426.63;5083690;27;45300;-71
2022/08/08 09:54:56;;;;;;;;;4.25;4.25;;;;;-145.45;100.00;57426.63;5082322;27;45587;-72
2022/08/08 09:57:32;;;;;;;;;6.25;5.75;;;;;-145.45;100.00;57426.63;5083126;27;46356;-72
2022/08/08 09:59:59;;;;;;;;;4.00;4.00;;;;;-145.45;100.00;57426.63;5078716;27;45450;-73
2022/08/08 10:02:35;;;;;;;;;5.80;4.60;;;;;-145.45;100.00;57426.63;5079742;27;45392;-73
2022/08/08 10:05:21;;;;;;;;;6.75;5.25;;;;;-145.45;100.00;57426.63;5081993;27;45416;-73
2022/08/08 10:07:49;;;;;;;;;5.80;4.20;;;;;-145.45;100.00;57426.63;5088440;27;46193;-72
2022/08/08 10:10:34;;;;;;;;;4.60;4.60;;;;;-145.45;100.00;57426.63;5069985;27;45769;-72
2022/08/08 10:13:13;;;;;;;;;4.40;4.40;;;;;-145.45;100.00;57426.63;5074155;27;45805;-73
2022/08/08 10:15:38;;;;;;;;;5.80;3.20;;;;;-145.45;100.00;57426.63;5086783;27;45431;-73
2022/08/08 10:18:04;;;;;;;;;5.25;4.25;;;;;-145.45;100.00;57426.63;5090335;27;45285;-72
2022/08/08 10:20:39;;;;;;;;;4.75;4.75;;;;;-145.45;100.00;57426.63;5081784;27;45444;-73
2022/08/08 10:23:04;;;;;;;;;4.20;4.20;;;;;-145.45;100.00;57426.63;5087874;27;45549;-72
2022/08/08 10:25:30;;;;;;;;;3.75;3.75;;;;;-145.45;100.00;57426.63;5089222;27;45652;-72
2022/08/08 10:27:56;;;;;;;;;1.60;0.80;;;;;-145.45;100.00;57426.63;5072157;27;47193;-72
2022/08/08 10:30:23;;;;;;;;;6.50;4.75;;;;;-145.45;100.00;57426.63;5087747;27;45336;-72
2022/08/08 10:32:57;;;;;;;;;3.80;3.80;;;;;-145.45;100.00;57426.63;5091034;27;45324;-73
2022/08/08 10:35:29;;;;;;;;;3.00;3.00;;;;;-145.45;100.00;57426.63;5095011;27;45388;-73
2022/08/08 10:38:05;;;;;;;;;4.20;4.20;;;;;-145.45;100.00;57426.63;5070621;27;46655;-73
2022/08/08 10:40:31;;;;;;;;;4.00;2.60;;;;;-145.45;100.00;57426.63;5085244;27;45435;-72
2022/08/08 10:42:59;;;;;;;;;5.00;4.25;;;;;-145.45;100.00;57426.63;5085235;27;45531;-71
2022/08/08 10:45:26;;;;;;;;;4.20;4.20;;;;;-145.45;100.00;57426.63;5073871;27;45821;-71
2022/08/08 10:47:55;;;;;;;;;3.00;3.00;;;;;-145.45;100.00;57426.63;5090688;27;46249;-71
2022/08/08 10:50:29;;;;;;;;;4.20;4.20;;;;;-145.45;100.00;57426.63;5085354;27;45281;-71
2022/08/08 10:53:00;;;;;;;;;3.20;3.20;;;;;-145.45;100.00;57426.63;5083649;27;45299;-72
2022/08/08 10:55:25;;;;;;;;;4.00;3.20;;;;;-145.45;100.00;57426.63;5087350;27;45347;-72
2022/08/08 10:57:50;;;;;;;;;5.50;5.50;;;;;-145.45;100.00;57426.63;5081342;27;46587;-71
2022/08/08 11:00:26;;;;;;;;;4.50;3.25;;;;;-145.45;100.00;57426.63;5079120;27;45469;-72
2022/08/08 11:02:55;;;;;;;;;2.40;2.40;;;;;-145.45;100.00;57426.63;5082872;27;45457;-71
2022/08/08 11:05:21;;;;;;;;;4.20;3.20;;;;;-145.45;100.00;57426.63;5075534;28;46900;-72
2022/08/08 11:07:49;;;;;;;;;3.80;3.80;;;;;-145.45;100.00;57426.63;5085487;27;45464;-72
2022/08/08 11:10:17;;;;;;;;;5.00;3.00;;;;;-145.45;100.00;57426.63;5079967;27;45344;-72
2022/08/08 11:12:56;;;;;;;;;3.20;3.20;;;;;-145.45;100.00;57426.63;5084645;27;45375;-72
2022/08/08 11:15:23;;;;;;;;;4.40;4.40;;;;;-145.45;100.00;57426.63;5082858;27;45501;-71
2022/08/08 11:17:50;;;;;;;;;5.60;3.80;;;;;-145.45;100.00;57426.63;5084699;27;46550;-72
2022/08/08 11:20:25;;;;;;;;;4.60;4.20;;;;;-145.45;100.00;57426.63;5083987;27;45392;-72
2022/08/08 11:22:53;;;;;;;;;4.20;4.20;;;;;-145.45;100.00;57426.63;5086085;27;45379;-71
2022/08/08 11:25:28;;;;;;;;;6.80;6.80;;;;;-145.45;100.00;57426.63;5083490;27;45221;-71
2022/08/08 11:27:55;;;;;;;;;4.60;4.60;;;;;-145.45;100.00;57426.63;5089481;27;45769;-72
2022/08/08 11:30:22;;;;;;;;;7.60;5.60;;;;;-145.45;100.00;57426.63;5083023;27;45330;-71
2022/08/08 11:32:52;;;;;;;;;5.40;4.80;;;;;-145.45;100.00;57426.63;5087142;27;45451;-72
2022/08/08 11:35:18;;;;;;;;;19.80;11.40;;;;;-145.45;100.00;57426.63;5097034;27;45376;-71
2022/08/08 11:37:43;;;;;;;;;10.50;5.75;;;;;-145.45;100.00;57426.63;5093313;27;46349;-75
2022/08/08 11:40:11;;;;;;;;;10.50;8.50;;;;;-145.45;100.00;57426.63;5084200;27;45643;-70
2022/08/08 11:42:37;;;;;;;;;5.20;5.20;;;;;-145.45;100.00;57426.63;5089061;27;46006;-70
2022/08/08 11:45:05;;;;;;;;;3.20;3.20;;;;;-145.45;100.00;57426.63;5086282;27;45408;-72